createdAt,value
2022-09-05T00:03:13.341Z,55.00
2022-09-05T00:05:46.523Z,55.10
2022-09-05T00:08:26.270Z,54.80
2022-09-05T00:13:39.655Z,55.90
2022-09-05T00:16:06.166Z,54.80
2022-09-05T00:21:38.090Z,54.80
2022-09-05T00:24:35.150Z,54.90
2022-09-05T00:26:52.461Z,55.00
2022-09-05T00:29:21.768Z,55.80
2022-09-05T00:32:05.381Z,55.20
2022-09-05T00:34:47.378Z,55.00
2022-09-05T00:37:17.091Z,54.70
2022-09-05T00:39:47.833Z,54.90
2022-09-05T00:44:51.210Z,54.80
2022-09-05T00:47:17.657Z,55.30
2022-09-05T00:49:44.098Z,54.80
2022-09-05T00:52:10.568Z,55.20
2022-09-05T00:54:40.712Z,55.60
2022-09-05T00:57:08.070Z,55.00
2022-09-05T00:59:37.842Z,54.80
2022-09-05T01:02:04.342Z,55.20
2022-09-05T01:06:57.834Z,55.00
2022-09-05T01:09:24.270Z,54.90
2022-09-05T01:11:50.718Z,54.50
2022-09-05T01:16:45.104Z,55.10
2022-09-05T01:19:15.888Z,55.00
2022-09-05T01:21:43.825Z,55.00
2022-09-05T01:24:14.772Z,54.80
2022-09-05T01:26:41.224Z,55.10
2022-09-05T01:29:18.348Z,54.80
2022-09-05T01:31:45.750Z,54.50
2022-09-05T01:34:12.198Z,55.30
2022-09-05T01:36:38.635Z,55.00
2022-09-05T01:40:14.947Z,54.70
2022-09-05T01:41:51.505Z,54.60
2022-09-05T01:44:17.964Z,54.70
2022-09-05T01:49:11.589Z,54.70
2022-09-05T01:51:39.456Z,55.40
2022-09-05T01:54:05.934Z,55.10
2022-09-05T01:56:36.542Z,54.70
2022-09-05T02:01:32.942Z,54.70
2022-09-05T02:03:59.754Z,54.80
2022-09-05T02:06:33.540Z,54.60
2022-09-05T02:08:59.981Z,55.00
2022-09-05T02:11:35.408Z,54.80
2022-09-05T02:14:02.633Z,54.80
2022-09-05T02:16:29.068Z,54.60
2022-09-05T02:18:55.513Z,55.30
2022-09-05T02:21:21.951Z,54.90
2022-09-05T02:23:49.038Z,54.70
2022-09-05T02:26:15.684Z,55.70
2022-09-05T02:28:42.193Z,54.50
2022-09-05T02:31:20.068Z,54.40
2022-09-05T02:33:47.133Z,55.40
2022-09-05T02:36:13.575Z,54.50
2022-09-05T02:45:06.607Z,54.70
2022-09-05T02:45:08.518Z,55.50
2022-09-05T02:45:13.413Z,54.70
2022-09-05T02:46:59.352Z,55.70
2022-09-05T02:51:05.531Z,55.00
2022-09-05T02:57:27.839Z,55.00
2022-09-05T02:57:35.750Z,55.90
2022-09-05T03:00:32.070Z,54.40
2022-09-05T03:02:58.575Z,54.50
2022-09-05T03:05:25.036Z,54.80
2022-09-05T03:07:51.479Z,54.30
2022-09-05T03:10:17.916Z,55.90
2022-09-05T03:12:44.353Z,54.60
2022-09-05T03:15:19.394Z,54.50
2022-09-05T03:17:49.769Z,54.40
2022-09-05T03:20:16.222Z,55.50
2022-09-05T03:22:42.657Z,54.80
2022-09-05T03:25:09.096Z,55.60
2022-09-05T03:32:29.513Z,54.30
2022-09-05T03:34:55.953Z,54.70
2022-09-05T03:37:22.385Z,54.60
2022-09-05T03:42:15.885Z,54.80
2022-09-05T03:44:42.518Z,54.70
2022-09-05T03:47:08.961Z,54.20
2022-09-05T03:51:51.443Z,54.40
2022-09-05T03:57:08.398Z,54.30
2022-09-05T03:57:10.636Z,55.50
2022-09-05T03:57:55.847Z,54.60
2022-09-05T04:07:45.760Z,54.60
2022-09-05T04:08:18.541Z,54.30
2022-09-05T04:08:41.014Z,54.20
2022-09-05T04:11:08.717Z,54.60
2022-09-05T04:13:35.239Z,54.60
2022-09-05T04:16:01.678Z,55.60
2022-09-05T04:18:33.833Z,54.40
2022-09-05T04:21:00.612Z,54.30
2022-09-05T04:23:27.553Z,54.50
2022-09-05T04:25:56.903Z,54.90
2022-09-05T04:28:38.251Z,54.60
2022-09-05T04:31:07.841Z,54.30
2022-09-05T04:33:36.161Z,54.50
2022-09-05T04:36:03.568Z,54.30
2022-09-05T04:38:44.460Z,55.40
2022-09-05T04:41:10.916Z,54.60
2022-09-05T04:43:37.358Z,54.50
2022-09-05T04:46:03.832Z,54.50
2022-09-05T04:48:30.299Z,54.40
2022-09-05T04:50:56.764Z,54.40
2022-09-05T04:53:25.296Z,54.50
2022-09-05T04:55:51.724Z,54.50
2022-09-05T04:58:18.193Z,54.40
2022-09-05T05:06:02.697Z,54.80
2022-09-05T05:06:12.916Z,54.50
2022-09-05T05:06:38.276Z,55.20
2022-09-05T05:09:07.496Z,54.30
2022-09-05T05:17:08.842Z,54.70
2022-09-05T05:18:06.878Z,55.50
2022-09-05T05:22:40.653Z,54.30
2022-09-05T05:27:34.077Z,54.50
2022-09-05T05:30:00.533Z,50.90
2022-09-05T05:32:44.953Z,49.70
2022-09-05T05:35:13.037Z,50.20
2022-09-05T05:40:06.520Z,50.50
2022-09-05T05:42:33.002Z,49.90
2022-09-05T05:44:59.455Z,48.70
2022-09-05T05:47:31.816Z,49.10
2022-09-05T05:49:58.865Z,51.30
2022-09-05T05:55:27.098Z,50.50
2022-09-05T05:57:38.782Z,51.10
2022-09-05T06:00:05.270Z,51.00
2022-09-05T06:02:31.940Z,51.20
2022-09-05T06:05:01.915Z,51.20
2022-09-05T06:07:30.459Z,50.90
2022-09-05T06:14:49.418Z,51.60
2022-09-05T06:14:55.255Z,52.00
2022-09-05T06:15:44.542Z,52.30
2022-09-05T06:22:04.681Z,52.20
2022-09-05T06:23:36.741Z,52.20
2022-09-05T06:26:06.121Z,52.20
2022-09-05T06:28:32.588Z,52.40
2022-09-05T06:31:30.798Z,52.40
2022-09-05T06:33:45.472Z,52.40
2022-09-05T06:36:11.912Z,52.30
2022-09-05T06:38:38.365Z,52.40
2022-09-05T06:41:04.824Z,52.80
2022-09-05T06:43:31.252Z,52.70
2022-09-05T06:45:58.904Z,53.20
2022-09-05T06:48:44.143Z,53.10
2022-09-05T06:51:11.412Z,53.00
2022-09-05T06:53:37.852Z,53.10
2022-09-05T06:56:04.317Z,53.20
2022-09-05T06:58:30.945Z,53.20
2022-09-05T07:00:57.485Z,53.20
2022-09-05T07:03:24.907Z,52.70
2022-09-05T07:05:51.442Z,53.10
2022-09-05T07:08:36.167Z,52.50
2022-09-05T07:13:44.482Z,53.00
2022-09-05T07:16:11.455Z,53.10
2022-09-05T07:18:38.016Z,53.10
2022-09-05T07:21:15.699Z,52.90
2022-09-05T07:24:10.272Z,53.00
2022-09-05T07:26:51.795Z,53.10
2022-09-05T07:29:16.881Z,53.10
2022-09-05T07:31:43.402Z,53.30
2022-09-05T07:34:20.612Z,52.70
2022-09-05T07:36:48.012Z,53.00
2022-09-05T07:41:55.113Z,53.30
2022-09-05T07:44:22.264Z,53.10
2022-09-05T07:46:48.845Z,53.20
2022-09-05T07:49:15.274Z,53.00
2022-09-05T07:56:46.434Z,53.30
2022-09-05T07:57:02.494Z,53.00
2022-09-05T07:57:31.602Z,53.20
2022-09-05T07:59:58.535Z,53.10
2022-09-05T08:02:24.981Z,53.00
2022-09-05T08:04:51.492Z,54.10
2022-09-05T08:07:49.617Z,54.00
2022-09-05T08:10:08.830Z,53.10
2022-09-05T08:13:22.824Z,53.30
2022-09-05T08:15:22.470Z,53.30
2022-09-05T08:17:50.216Z,54.00
2022-09-05T08:20:16.658Z,54.10
2022-09-05T08:22:43.095Z,53.90
2022-09-05T08:25:19.229Z,53.30
2022-09-05T08:27:45.734Z,54.00
2022-09-05T08:30:25.846Z,54.20
2022-09-05T08:32:53.511Z,53.80
2022-09-05T08:35:24.013Z,53.60
2022-09-05T08:37:50.447Z,53.50
2022-09-05T08:42:49.322Z,54.40
2022-09-05T08:46:47.737Z,53.50
2022-09-05T08:48:16.904Z,53.70
2022-09-05T08:50:43.355Z,53.80
2022-09-05T08:53:28.116Z,53.40
2022-09-05T08:55:56.249Z,53.60
2022-09-05T08:58:22.701Z,53.40
2022-09-05T09:00:55.578Z,53.60
2022-09-05T09:06:12.560Z,53.50
2022-09-05T09:08:38.806Z,53.90
2022-09-05T09:11:05.253Z,54.00
2022-09-05T09:13:31.726Z,53.50
2022-09-05T09:15:58.221Z,53.60
2022-09-05T09:18:24.702Z,53.50
2022-09-05T09:20:51.150Z,53.30
2022-09-05T09:23:31.909Z,53.30
2022-09-05T09:25:59.348Z,53.50
2022-09-05T09:28:50.670Z,53.60
2022-09-05T09:31:12.290Z,53.40
2022-09-05T09:33:38.740Z,54.60
2022-09-05T09:36:06.225Z,54.60
2022-09-05T09:38:34.701Z,53.70
2022-09-05T09:43:29.345Z,53.60
2022-09-05T09:45:55.780Z,54.00
2022-09-05T09:48:22.323Z,53.80
2022-09-05T09:50:58.892Z,54.50
2022-09-05T09:53:26.276Z,53.80
2022-09-05T09:55:52.717Z,53.20
2022-09-05T09:58:19.177Z,53.60
2022-09-05T10:00:45.640Z,53.30
2022-09-05T10:10:33.833Z,53.30
2022-09-05T10:10:50.596Z,52.90
2022-09-05T10:11:53.192Z,54.10
2022-09-05T10:14:22.536Z,54.10
2022-09-05T10:22:35.269Z,54.50
2022-09-05T10:25:18.865Z,54.20
2022-09-05T10:27:45.970Z,53.30
2022-09-05T10:30:12.428Z,53.20
2022-09-05T10:35:11.420Z,53.70
2022-09-05T10:35:25.901Z,53.10
2022-09-05T10:37:52.892Z,54.20
2022-09-05T10:40:19.363Z,53.50
2022-09-05T10:42:59.831Z,53.50
2022-09-05T10:45:34.314Z,53.90
2022-09-05T10:50:34.865Z,53.40
2022-09-05T10:53:01.308Z,54.00
2022-09-05T10:55:27.749Z,53.40
2022-09-05T10:57:54.203Z,53.40
2022-09-05T11:02:20.818Z,54.10
2022-09-05T11:03:22.295Z,54.00
2022-09-05T11:05:49.556Z,53.70
2022-09-05T11:08:16.060Z,54.10
2022-09-05T11:13:09.585Z,51.70
2022-09-05T11:15:36.040Z,52.20
2022-09-05T11:18:05.703Z,51.00
2022-09-05T11:20:34.532Z,51.80
2022-09-05T11:23:01.098Z,49.90
2022-09-05T11:28:04.774Z,50.70
2022-09-05T11:30:34.441Z,51.00
2022-09-05T11:38:47.699Z,50.80
2022-09-05T11:39:59.339Z,50.30
2022-09-05T11:40:06.570Z,49.20
2022-09-05T11:41:23.264Z,48.40
2022-09-05T11:43:50.420Z,48.40
2022-09-05T11:46:16.958Z,47.90
2022-09-05T11:48:49.255Z,48.70
2022-09-05T11:51:26.024Z,48.70
2022-09-05T11:54:00.157Z,49.00
2022-09-05T11:56:28.890Z,48.40
2022-09-05T11:58:55.581Z,48.80
2022-09-05T12:06:47.762Z,48.80
2022-09-05T12:09:20.286Z,49.10
2022-09-05T12:11:49.859Z,48.80
2022-09-05T12:14:21.606Z,47.50
2022-09-05T12:16:52.088Z,48.00
2022-09-05T12:19:19.574Z,48.10
2022-09-05T12:21:46.542Z,48.00
2022-09-05T12:25:25.490Z,47.60
2022-09-05T12:27:41.798Z,48.70
2022-09-05T12:29:51.190Z,48.80
2022-09-05T12:33:56.631Z,48.60
2022-09-05T12:36:07.239Z,49.20
2022-09-05T12:40:54.275Z,48.40
2022-09-05T12:41:35.369Z,48.30
2022-09-05T12:41:37.999Z,48.60
2022-09-05T12:44:00.673Z,49.30
2022-09-05T12:46:23.628Z,48.60
2022-09-05T12:48:50.983Z,49.60
2022-09-05T12:51:46.176Z,48.30
2022-09-05T12:54:03.883Z,49.30
2022-09-05T12:59:56.732Z,49.60
2022-09-05T13:02:59.508Z,49.20
2022-09-05T13:05:10.243Z,49.30
2022-09-05T13:07:37.370Z,49.40
2022-09-05T13:14:46.259Z,49.60
2022-09-05T13:14:52.376Z,49.90
2022-09-05T13:15:36.818Z,49.50
2022-09-05T13:18:03.314Z,50.00
2022-09-05T13:20:29.768Z,49.60
2022-09-05T13:22:56.212Z,50.40
2022-09-05T13:25:22.658Z,50.20
2022-09-05T13:27:49.096Z,50.80
2022-09-05T13:37:01.394Z,49.50
2022-09-05T13:38:07.592Z,49.60
2022-09-05T13:38:48.277Z,49.40
2022-09-05T13:41:27.090Z,49.40
2022-09-05T13:44:25.159Z,49.40
2022-09-05T13:46:41.192Z,50.50
2022-09-05T13:49:25.069Z,49.10
2022-09-05T13:51:53.897Z,50.30
2022-09-05T13:54:20.343Z,49.60
2022-09-05T13:59:13.771Z,49.90
2022-09-05T14:05:05.289Z,48.90
2022-09-05T14:09:47.904Z,49.70
2022-09-05T14:12:14.380Z,49.00
2022-09-05T14:20:13.704Z,49.40
2022-09-05T14:22:40.174Z,49.40
2022-09-05T14:25:06.618Z,49.40
2022-09-05T14:30:05.417Z,49.00
2022-09-05T14:37:45.450Z,50.10
2022-09-05T14:38:20.357Z,50.10
2022-09-05T14:43:14.134Z,50.40
2022-09-05T14:45:40.627Z,50.50
2022-09-05T14:48:07.100Z,50.30
2022-09-05T14:50:35.101Z,49.10
2022-09-05T14:55:48.060Z,49.10
2022-09-05T15:02:44.703Z,48.80
2022-09-05T15:02:54.725Z,49.80
2022-09-05T15:06:39.361Z,49.60
2022-09-05T15:12:16.830Z,49.10
2022-09-05T15:12:26.122Z,49.00
2022-09-05T15:14:38.683Z,50.20
2022-09-05T15:17:05.247Z,50.30
2022-09-05T15:19:31.909Z,50.30
2022-09-05T15:24:25.341Z,49.30
2022-09-05T15:26:55.921Z,49.50
2022-09-05T15:29:22.360Z,50.10
2022-09-05T15:34:19.824Z,49.80
2022-09-05T15:36:46.301Z,49.50
2022-09-05T15:39:12.744Z,49.30
2022-09-05T15:41:43.050Z,49.70
2022-09-05T15:44:10.122Z,50.50
2022-09-05T15:46:36.649Z,49.60
2022-09-05T15:49:03.091Z,49.60
2022-09-05T15:51:29.538Z,49.70
2022-09-05T15:53:55.993Z,50.50
2022-09-05T15:56:25.234Z,50.70
2022-09-05T15:58:53.290Z,50.60
2022-09-05T16:01:35.875Z,50.70
2022-09-05T16:06:59.856Z,50.10
2022-09-05T16:10:31.792Z,50.90
2022-09-05T16:10:46.930Z,50.40
2022-09-05T16:12:27.457Z,50.40
2022-09-05T16:16:12.277Z,51.20
2022-09-05T16:23:17.945Z,51.10
2022-09-05T16:23:33.142Z,50.30
2022-09-05T16:23:39.337Z,50.90
2022-09-05T16:26:00.273Z,50.80
2022-09-05T16:28:26.706Z,51.70
2022-09-05T16:30:53.159Z,51.00
2022-09-05T16:33:19.606Z,51.90
2022-09-05T16:35:46.046Z,51.70
2022-09-05T16:38:12.502Z,52.20
2022-09-05T16:40:38.946Z,51.30
2022-09-05T16:43:05.385Z,52.10
2022-09-05T16:45:31.884Z,52.40
2022-09-05T16:47:58.405Z,51.90
2022-09-05T16:50:24.981Z,52.40
2022-09-05T16:53:00.845Z,53.00
2022-09-05T16:55:31.861Z,53.10
2022-09-05T17:00:25.310Z,52.40
2022-09-05T17:02:51.756Z,52.80
2022-09-05T17:05:18.200Z,52.90
2022-09-05T17:07:44.645Z,52.70
2022-09-05T17:10:11.202Z,52.30
2022-09-05T17:12:37.661Z,53.10
2022-09-05T17:15:04.107Z,53.20
2022-09-05T17:18:18.596Z,53.30
2022-09-05T17:26:17.520Z,53.70
2022-09-05T17:29:32.868Z,52.90
2022-09-05T17:29:35.287Z,52.70
2022-09-05T17:36:16.669Z,53.60
2022-09-05T17:38:43.109Z,53.80
2022-09-05T17:41:09.545Z,52.80
2022-09-05T17:43:35.999Z,53.70
2022-09-05T17:46:02.459Z,53.40
2022-09-05T17:48:30.700Z,53.40
2022-09-05T17:50:57.140Z,53.60
2022-09-05T17:53:26.779Z,52.50
2022-09-05T17:55:53.877Z,53.30
2022-09-05T17:58:20.343Z,52.70
2022-09-05T18:00:46.849Z,53.50
2022-09-05T18:03:13.330Z,53.90
2022-09-05T18:05:39.756Z,53.60
2022-09-05T18:08:06.991Z,53.70
2022-09-05T18:10:33.481Z,53.30
2022-09-05T18:13:12.985Z,52.90
2022-09-05T18:15:46.368Z,53.50
2022-09-05T18:21:12.498Z,53.70
2022-09-05T18:23:54.127Z,53.80
2022-09-05T18:26:21.340Z,53.00
2022-09-05T18:31:16.770Z,53.30
2022-09-05T18:33:55.057Z,53.90
2022-09-05T18:36:25.984Z,53.30
2022-09-05T18:41:21.750Z,53.10
2022-09-05T18:44:12.514Z,53.80
2022-09-05T18:46:34.918Z,53.90
2022-09-05T18:50:12.573Z,53.30
2022-09-05T18:51:49.086Z,53.30
2022-09-05T18:54:20.261Z,53.40
2022-09-05T18:57:15.324Z,53.90
2022-09-05T18:59:34.536Z,54.00
2022-09-05T19:04:40.434Z,54.10
2022-09-05T19:07:08.857Z,53.60
2022-09-05T19:12:32.456Z,53.60
2022-09-05T19:14:50.690Z,54.00
2022-09-05T19:17:17.237Z,53.40
2022-09-05T19:19:45.626Z,53.60
2022-09-05T19:23:08.366Z,53.90
2022-09-05T19:25:03.958Z,53.90
2022-09-05T19:28:49.942Z,53.60
2022-09-05T19:36:44.248Z,53.80
2022-09-05T19:36:55.345Z,53.80
2022-09-05T19:37:14.785Z,53.80
2022-09-05T19:39:01.509Z,54.50
2022-09-05T19:47:57.536Z,54.50
2022-09-05T19:47:57.877Z,54.20
2022-09-05T19:49:42.449Z,53.70
2022-09-05T19:52:10.083Z,54.30
2022-09-05T19:54:36.516Z,54.00
2022-09-05T19:57:02.956Z,54.20
2022-09-05T20:02:00.765Z,53.50
2022-09-05T20:04:27.241Z,53.70
2022-09-05T20:06:53.697Z,54.60
2022-09-05T20:09:20.171Z,54.00
2022-09-05T20:11:46.823Z,53.90
2022-09-05T20:14:16.071Z,53.90
2022-09-05T20:16:43.297Z,54.90
2022-09-05T20:19:09.737Z,54.10
2022-09-05T20:24:03.152Z,54.10
2022-09-05T20:26:29.594Z,53.40
2022-09-05T20:28:56.032Z,54.40
2022-09-05T20:31:22.522Z,54.10
2022-09-05T20:33:51.718Z,54.40
2022-09-05T20:42:14.096Z,54.50
2022-09-05T20:43:26.645Z,53.70
2022-09-05T20:44:38.302Z,53.70
2022-09-05T20:49:41.548Z,54.50
2022-09-05T20:54:15.238Z,53.50
2022-09-05T20:54:20.333Z,54.70
2022-09-05T20:55:40.090Z,53.80
2022-09-05T20:58:09.453Z,54.30
2022-09-05T21:00:36.000Z,54.20
2022-09-05T21:03:02.539Z,53.70
2022-09-05T21:05:29.065Z,53.90
2022-09-05T21:08:07.161Z,54.70
2022-09-05T21:10:34.293Z,54.00
2022-09-05T21:13:18.897Z,53.90
2022-09-05T21:15:52.862Z,53.80
2022-09-05T21:18:20.602Z,54.70
2022-09-05T21:20:47.062Z,53.80
2022-09-05T21:23:13.507Z,54.00
2022-09-05T21:25:44.395Z,53.80
2022-09-05T21:28:10.961Z,54.00
2022-09-05T21:30:37.432Z,54.60
2022-09-05T21:33:03.882Z,54.90
2022-09-05T21:35:34.400Z,54.70
2022-09-05T21:38:01.952Z,54.80
2022-09-05T21:40:28.417Z,53.90
2022-09-05T21:47:35.098Z,54.20
2022-09-05T21:47:49.352Z,54.00
2022-09-05T21:48:27.795Z,54.70
2022-09-05T21:50:54.408Z,54.40
2022-09-05T21:56:33.218Z,54.10
2022-09-05T21:59:20.006Z,53.90
2022-09-05T21:59:24.160Z,54.70
2022-09-05T22:01:52.626Z,54.40
2022-09-05T22:04:19.681Z,54.10
2022-09-05T22:06:46.155Z,53.70
2022-09-05T22:09:13.676Z,53.60
2022-09-05T22:11:40.577Z,53.70
2022-09-05T22:14:07.034Z,54.10
2022-09-05T22:16:33.486Z,54.80
2022-09-05T22:18:59.946Z,53.70
2022-09-05T22:21:33.708Z,53.90
2022-09-05T22:24:00.904Z,53.80
2022-09-05T22:28:54.332Z,53.70
2022-09-05T22:31:20.855Z,53.70
2022-09-05T22:36:17.338Z,54.70
2022-09-05T22:38:43.777Z,54.70
2022-09-05T22:41:10.222Z,54.30
2022-09-05T22:43:39.268Z,54.60
2022-09-05T22:46:05.762Z,54.70
2022-09-05T22:48:32.272Z,54.60
2022-09-05T22:50:58.743Z,53.80
2022-09-05T22:53:25.196Z,53.90
2022-09-05T22:55:51.715Z,53.70
2022-09-05T22:58:18.156Z,54.80
2022-09-05T23:00:44.691Z,54.90
2022-09-05T23:03:11.157Z,54.40
2022-09-05T23:05:37.637Z,54.70
2022-09-05T23:08:04.079Z,53.80
2022-09-05T23:10:30.516Z,54.10
2022-09-05T23:12:56.968Z,53.70
2022-09-05T23:15:23.399Z,54.60
2022-09-05T23:17:49.844Z,53.60
2022-09-05T23:20:16.284Z,53.50
2022-09-05T23:22:42.714Z,53.90
2022-09-05T23:25:09.181Z,54.50
2022-09-05T23:30:02.633Z,53.40
2022-09-05T23:32:29.068Z,53.30
2022-09-05T23:34:55.520Z,54.10
2022-09-05T23:37:21.953Z,53.70
2022-09-05T23:39:48.430Z,53.80
2022-09-05T23:42:14.920Z,54.20
2022-09-05T23:44:41.352Z,53.70
2022-09-05T23:47:07.810Z,53.90
2022-09-05T23:49:34.269Z,54.20
2022-09-05T23:52:00.712Z,53.70
2022-09-05T23:54:27.165Z,53.90
2022-09-05T23:56:53.605Z,53.80
2022-09-05T23:59:20.064Z,54.90
